Time;durP1;ratioP1;P1;durP2;ratioP2;P2;SDS_P1;SDS_P2;PMS_P1;PMS_P2;Temp;Humidity;BMP_temperature;BMP_pressure;BME280_temperature;BME280_humidity;BME280_pressure;Samples;Min_cycle;Max_cycle;Signal;HPM_P1;HPM_P2
2020/12/14 00:00:29;;;;;;;134.40;63.40;;;;;;;4.00;86.01;100536.60;1730718;82;21617;-70
2020/12/14 00:02:59;;;;;;;140.70;63.35;;;;;;;4.00;86.03;100541.87;1730979;82;21184;-69
2020/12/14 00:05:25;;;;;;;142.43;66.02;;;;;;;3.97;86.03;100540.81;1730490;82;21744;-69
2020/12/14 00:07:52;;;;;;;145.12;65.42;;;;;;;3.94;86.05;100541.06;1730578;82;21641;-70
2020/12/14 00:10:18;;;;;;;138.32;63.42;;;;;;;3.92;86.07;100539.02;1729521;82;21192;-70
2020/12/14 00:12:44;;;;;;;134.78;59.03;;;;;;;3.91;86.08;100538.65;1730457;82;21156;-70
2020/12/14 00:15:10;;;;;;;145.60;63.42;;;;;;;3.88;86.07;100536.27;1730036;82;21215;-69
2020/12/14 00:17:37;;;;;;;126.58;59.10;;;;;;;3.87;86.09;100537.25;1730419;81;21212;-70
2020/12/14 00:20:04;;;;;;;133.20;57.78;;;;;;;3.89;86.10;100540.59;1730513;82;21291;-69
2020/12/14 00:22:34;;;;;;;121.82;54.83;;;;;;;3.93;86.10;100545.98;1730740;82;21606;-70
2020/12/14 00:25:02;;;;;;;120.10;55.38;;;;;;;3.95;86.10;100541.40;1743801;82;21184;-70
2020/12/14 00:27:28;;;;;;;125.40;56.55;;;;;;;3.95;86.13;100541.40;1738387;82;21637;-70
2020/12/14 00:29:55;;;;;;;123.62;56.28;;;;;;;3.96;86.15;100543.92;1720066;83;21519;-69
2020/12/14 00:32:22;;;;;;;121.62;58.60;;;;;;;3.97;86.21;100539.49;1734432;82;21200;-69
2020/12/14 00:34:48;;;;;;;129.23;60.17;;;;;;;3.98;86.20;100540.67;1746485;82;21258;-69
2020/12/14 00:37:14;;;;;;;132.57;61.50;;;;;;;4.02;86.21;100540.78;1735004;82;21141;-69
2020/12/14 00:39:40;;;;;;;127.85;59.80;;;;;;;4.05;86.22;100541.00;1736559;81;21170;-69
2020/12/14 00:42:07;;;;;;;128.72;62.25;;;;;;;4.05;86.23;100550.24;1730426;82;21202;-70
2020/12/14 00:44:33;;;;;;;139.95;64.10;;;;;;;3.99;86.25;100547.63;1729891;82;21190;-69
2020/12/14 00:46:59;;;;;;;129.38;59.00;;;;;;;4.01;86.26;100551.48;1750143;82;21211;-69
2020/12/14 00:49:26;;;;;;;125.97;58.10;;;;;;;4.00;86.26;100555.07;1750191;82;21617;-69
2020/12/14 00:51:53;;;;;;;153.35;64.00;;;;;;;3.96;86.27;100561.08;1723648;82;21763;-69
2020/12/14 00:54:19;;;;;;;154.07;66.67;;;;;;;3.93;86.28;100558.69;1720099;83;21148;-69
2020/12/14 00:56:45;;;;;;;174.23;68.12;;;;;;;3.94;86.28;100560.85;1720048;83;22153;-69
2020/12/14 00:59:12;;;;;;;163.45;68.02;;;;;;;3.98;86.26;100558.30;1720287;83;21593;-69
2020/12/14 01:01:38;;;;;;;143.80;65.45;;;;;;;3.97;86.28;100557.48;1743125;82;21176;-69
2020/12/14 01:04:04;;;;;;;135.10;63.58;;;;;;;4.01;86.26;100559.39;1750320;82;21160;-69
2020/12/14 01:06:30;;;;;;;130.60;61.48;;;;;;;4.02;86.28;100562.37;1750544;81;21152;-69
2020/12/14 01:08:57;;;;;;;142.32;64.55;;;;;;;4.01;86.30;100569.44;1750616;82;22065;-69
2020/12/14 01:11:28;;;;;;;138.77;63.60;;;;;;;3.98;86.33;100559.14;1729994;81;21585;-70
2020/12/14 01:13:54;;;;;;;149.70;65.70;;;;;;;4.00;86.31;100566.47;1720070;82;21148;-70
2020/12/14 01:16:21;;;;;;;134.35;62.10;;;;;;;3.97;86.32;100567.20;1720651;83;21232;-69
2020/12/14 01:18:47;;;;;;;131.63;62.93;;;;;;;3.95;86.30;100564.67;1720353;83;21191;-69
2020/12/14 01:21:13;;;;;;;124.55;57.73;;;;;;;3.96;86.32;100568.15;1738620;82;21214;-69
2020/12/14 01:23:39;;;;;;;118.02;57.95;;;;;;;3.98;86.33;100571.02;1750378;81;21578;-70
2020/12/14 01:26:06;;;;;;;114.25;57.27;;;;;;;3.99;86.36;100570.06;1750213;82;21239;-70
2020/12/14 01:28:32;;;;;;;114.95;56.40;;;;;;;4.00;86.34;100568.27;1748359;82;21577;-69
2020/12/14 01:30:58;;;;;;;122.13;60.15;;;;;;;3.98;86.39;100560.94;1750266;81;21187;-69
2020/12/14 01:33:24;;;;;;;137.28;64.53;;;;;;;3.96;86.39;100566.83;1750502;81;21204;-70
2020/12/14 01:35:51;;;;;;;135.10;64.15;;;;;;;3.95;86.41;100566.47;1750427;82;21609;-70
2020/12/14 01:38:17;;;;;;;132.43;65.90;;;;;;;3.91;86.42;100572.47;1726746;82;21748;-70
2020/12/14 01:40:43;;;;;;;135.10;64.62;;;;;;;3.93;86.42;100572.36;1720430;83;21128;-70
2020/12/14 01:43:09;;;;;;;138.28;67.45;;;;;;;3.91;86.45;100572.47;1720386;83;21208;-69
2020/12/14 01:45:36;;;;;;;150.97;67.50;;;;;;;3.92;86.46;100568.87;1731730;82;21223;-70
2020/12/14 01:48:05;;;;;;;158.18;71.67;;;;;;;3.90;86.44;100569.97;1750473;82;21574;-70
2020/12/14 01:50:32;;;;;;;146.20;64.32;;;;;;;3.88;86.47;100564.80;1725042;82;21195;-69
2020/12/14 01:52:59;;;;;;;134.65;60.28;;;;;;;3.88;86.46;100560.00;1750244;81;21549;-69
2020/12/14 01:55:36;;;;;;;126.38;58.35;;;;;;;3.87;86.47;100564.95;1742811;82;21176;-70
2020/12/14 01:58:03;;;;;;;134.20;59.65;;;;;;;3.85;86.49;100557.14;1720257;83;22148;-69
2020/12/14 02:00:29;;;;;;;118.35;56.60;;;;;;;3.82;86.47;100560.03;1720446;83;21200;-69
2020/12/14 02:02:55;;;;;;;123.50;56.98;;;;;;;3.82;86.46;100559.19;1720311;83;21191;-70
2020/12/14 02:05:22;;;;;;;116.12;56.20;;;;;;;3.82;86.44;100560.03;1727117;82;21212;-69
2020/12/14 02:07:48;;;;;;;119.93;56.20;;;;;;;3.84;86.44;100559.89;1750489;82;21175;-69
2020/12/14 02:10:14;;;;;;;117.95;57.50;;;;;;;3.84;86.46;100563.37;1750499;82;21558;-70
2020/12/14 02:12:40;;;;;;;123.65;58.78;;;;;;;3.87;86.43;100568.39;1750517;82;21221;-69
2020/12/14 02:15:07;;;;;;;131.93;60.95;;;;;;;3.88;86.45;100570.08;1746868;81;21147;-69
2020/12/14 02:17:33;;;;;;;136.25;60.28;;;;;;;3.91;86.45;100568.98;1720541;83;21164;-69
2020/12/14 02:19:59;;;;;;;127.12;60.30;;;;;;;3.89;86.46;100570.45;1721152;82;21132;-69
2020/12/14 02:22:26;;;;;;;134.12;61.63;;;;;;;3.86;86.47;100564.58;1722684;82;21201;-69
2020/12/14 02:25:00;;;;;;;137.72;59.90;;;;;;;3.86;86.49;100568.53;1713966;83;21160;-69
2020/12/14 02:27:28;;;;;;;121.37;56.80;;;;;;;3.87;86.46;100565.75;1701185;83;21199;-69
2020/12/14 02:29:55;;;;;;;120.37;53.08;;;;;;;3.85;86.48;100564.21;1702040;83;21204;-69
2020/12/14 02:32:22;;;;;;;127.38;59.83;;;;;;;3.89;86.47;100568.28;1715181;82;21121;-69
2020/12/14 02:34:48;;;;;;;134.75;62.93;;;;;;;3.90;86.51;100569.50;1724748;81;21202;-69
2020/12/14 02:37:18;;;;;;;123.72;58.42;;;;;;;3.92;86.52;100569.36;1701944;83;21176;-69
2020/12/14 02:39:44;;;;;;;120.75;56.92;;;;;;;3.97;86.52;100568.04;1709222;82;21156;-69
2020/12/14 02:42:14;;;;;;;120.08;56.68;;;;;;;3.96;86.54;100565.52;1730597;82;21192;-70
2020/12/14 02:44:41;;;;;;;122.47;59.88;;;;;;;3.92;86.57;100568.87;1703215;82;21184;-69
2020/12/14 02:47:07;;;;;;;129.93;57.60;;;;;;;3.92;86.58;100568.87;1702035;84;21209;-69
2020/12/14 02:49:35;;;;;;;132.45;59.98;;;;;;;3.97;86.56;100571.16;1706534;82;21153;-69
2020/12/14 02:52:01;;;;;;;129.63;61.05;;;;;;;3.97;86.56;100571.16;1731289;82;21247;-69
2020/12/14 02:54:27;;;;;;;127.92;55.75;;;;;;;3.96;86.58;100572.11;1731055;82;21621;-69
2020/12/14 02:56:54;;;;;;;126.18;57.33;;;;;;;3.97;86.58;100575.11;1731208;82;21136;-69
2020/12/14 02:59:20;;;;;;;119.75;55.23;;;;;;;3.91;86.59;100565.03;1730578;82;21252;-70
2020/12/14 03:01:48;;;;;;;148.75;68.62;;;;;;;3.87;86.61;100568.39;1729993;82;21263;-69
2020/12/14 03:04:15;;;;;;;117.85;55.60;;;;;;;3.84;86.63;100569.13;1730761;81;21169;-69
2020/12/14 03:06:46;;;;;;;109.57;51.75;;;;;;;3.84;86.63;100570.44;1730852;82;21176;-70
2020/12/14 03:09:13;;;;;;;119.10;54.88;;;;;;;3.86;86.61;100564.58;1720086;82;21216;-69
2020/12/14 03:11:39;;;;;;;116.30;54.90;;;;;;;3.85;86.62;100567.69;1721441;82;22165;-69
2020/12/14 03:14:07;;;;;;;122.00;58.25;;;;;;;3.88;86.62;100570.55;1731139;81;21204;-70
2020/12/14 03:16:41;;;;;;;122.28;56.30;;;;;;;3.95;86.64;100562.50;1731309;82;21586;-70
2020/12/14 03:19:08;;;;;;;129.72;57.00;;;;;;;3.98;86.67;100564.89;1731084;82;21224;-69
2020/12/14 03:21:34;;;;;;;139.57;63.28;;;;;;;4.01;86.67;100564.67;1714127;82;21149;-69
2020/12/14 03:24:00;;;;;;;140.12;64.67;;;;;;;4.05;86.68;100561.30;1702018;82;21208;-69
2020/12/14 03:26:27;;;;;;;128.62;59.50;;;;;;;4.04;86.67;100560.46;1681812;84;21186;-70
2020/12/14 03:28:53;;;;;;;128.65;57.90;;;;;;;3.99;86.72;100569.22;1678332;84;21541;-70
2020/12/14 03:31:19;;;;;;;121.82;56.65;;;;;;;3.93;86.72;100567.08;1685269;83;21229;-70
2020/12/14 03:33:48;;;;;;;120.53;54.18;;;;;;;3.90;86.72;100570.81;1698634;84;21177;-69
2020/12/14 03:36:14;;;;;;;125.27;55.83;;;;;;;3.90;86.71;100566.02;1667530;85;21608;-69
2020/12/14 03:38:40;;;;;;;114.52;53.83;;;;;;;3.91;86.71;100567.19;1685502;85;21229;-69
2020/12/14 03:41:06;;;;;;;117.28;56.75;;;;;;;3.90;86.71;100564.70;1709450;83;21211;-69
2020/12/14 03:43:34;;;;;;;114.10;55.67;;;;;;;3.88;86.70;100561.33;1698738;83;21127;-70
2020/12/14 03:46:00;;;;;;;110.03;55.20;;;;;;;3.93;86.71;100567.92;1711849;83;21152;-69
2020/12/14 03:48:26;;;;;;;168.28;84.10;;;;;;;3.98;86.72;100562.25;1712081;83;21615;-69
2020/12/14 03:50:53;;;;;;;207.52;98.42;;;;;;;3.99;86.71;100559.50;1712542;83;21201;-69
2020/12/14 03:53:19;;;;;;;168.07;81.42;;;;;;;3.97;86.75;100557.96;1698834;84;21161;-70
2020/12/14 03:55:45;;;;;;;199.47;88.37;;;;;;;3.92;86.75;100560.96;1680250;84;21220;-70
2020/12/14 03:58:12;;;;;;;141.32;65.90;;;;;;;3.88;86.79;100567.92;1670518;84;21174;-70
2020/12/14 04:00:38;;;;;;;174.60;83.00;;;;;;;3.86;86.75;100575.13;1673464;84;21282;-69
2020/12/14 04:03:08;;;;;;;184.07;81.32;;;;;;;3.82;86.77;100580.29;1670587;85;21191;-69
2020/12/14 04:05:35;;;;;;;199.47;84.50;;;;;;;3.79;86.79;100581.86;1683322;85;21158;-70
2020/12/14 04:08:03;;;;;;;180.10;77.45;;;;;;;3.79;86.78;100591.09;1690709;84;21169;-70
2020/12/14 04:10:29;;;;;;;153.42;66.35;;;;;;;3.82;86.77;100590.84;1714866;82;21161;-70
2020/12/14 04:12:55;;;;;;;131.27;58.63;;;;;;;3.86;86.75;100597.55;1719760;82;21195;-69
2020/12/14 04:15:22;;;;;;;131.27;59.38;;;;;;;3.91;86.75;100594.05;1719975;83;21194;-69
2020/12/14 04:17:48;;;;;;;134.80;63.23;;;;;;;3.93;86.77;100594.78;1719947;83;21162;-70
2020/12/14 04:20:14;;;;;;;167.75;70.12;;;;;;;3.91;86.79;100594.89;1699252;83;21563;-70
2020/12/14 04:22:40;;;;;;;171.47;78.47;;;;;;;3.92;86.79;100589.14;1698887;83;21217;-70
2020/12/14 04:25:07;;;;;;;155.12;68.37;;;;;;;3.90;86.81;100586.64;1671366;83;21288;-70
2020/12/14 04:27:33;;;;;;;158.55;74.65;;;;;;;3.88;86.81;100586.38;1722270;83;21683;-70
2020/12/14 04:29:59;;;;;;;164.32;79.80;;;;;;;3.88;86.83;100587.70;1699071;83;21195;-70
2020/12/14 04:32:26;;;;;;;180.15;95.15;;;;;;;3.86;86.86;100594.91;1702158;82;21631;-69
2020/12/14 04:34:52;;;;;;;202.97;126.27;;;;;;;3.83;86.85;100588.09;1701990;82;21154;-69
2020/12/14 04:37:18;;;;;;;181.95;96.37;;;;;;;3.80;86.87;100594.09;1701981;82;21206;-70
2020/12/14 04:39:45;;;;;;;171.68;81.42;;;;;;;3.77;86.87;100598.27;1715925;82;21224;-69
2020/12/14 04:42:11;;;;;;;154.63;73.02;;;;;;;3.80;86.88;100600.69;1724725;82;21180;-69
2020/12/14 04:44:38;;;;;;;141.30;67.15;;;;;;;3.87;86.87;100606.64;1702000;83;21227;-69
2020/12/14 04:47:04;;;;;;;138.00;63.25;;;;;;;3.93;86.89;100607.97;1730194;82;21160;-70
2020/12/14 04:49:32;;;;;;;125.78;58.65;;;;;;;3.99;86.91;100611.43;1719661;82;22018;-69
2020/12/14 04:51:58;;;;;;;125.85;58.55;;;;;;;4.03;86.91;100618.14;1731261;82;21243;-69
2020/12/14 04:54:25;;;;;;;157.80;74.35;;;;;;;4.08;86.95;100612.51;1731175;82;21562;-70
2020/12/14 04:56:54;;;;;;;167.45;77.25;;;;;;;4.10;86.96;100615.84;1731232;82;21145;-69
2020/12/14 04:59:24;;;;;;;127.53;56.00;;;;;;;4.12;86.97;100616.08;1730979;81;21731;-69
2020/12/14 05:01:51;;;;;;;140.37;68.42;;;;;;;4.14;86.96;100627.36;1702004;84;21261;-69
2020/12/14 05:04:17;;;;;;;128.02;62.67;;;;;;;4.17;86.99;100628.44;1701975;84;21223;-69
2020/12/14 05:06:50;;;;;;;130.50;64.00;;;;;;;4.13;86.97;100627.00;1701866;84;21720;-69
2020/12/14 05:09:18;;;;;;;155.97;71.75;;;;;;;4.11;86.98;100628.94;1702048;84;21200;-69
2020/12/14 05:11:45;;;;;;;129.97;59.90;;;;;;;4.14;86.96;100629.16;1730330;82;21887;-69
2020/12/14 05:14:14;;;;;;;152.62;69.92;;;;;;;4.13;86.94;100630.95;1731342;82;22173;-69
2020/12/14 05:16:41;;;;;;;147.90;63.10;;;;;;;4.14;86.92;100628.69;1731105;82;21172;-69
2020/12/14 05:19:23;;;;;;;139.03;60.17;;;;;;;4.12;86.94;100627.95;1731345;82;21172;-69
2020/12/14 05:21:56;;;;;;;126.50;57.05;;;;;;;4.11;86.92;100631.58;1703044;82;21191;-70
2020/12/14 05:24:31;;;;;;;144.77;61.55;;;;;;;4.08;86.96;100641.53;1701152;84;21247;-69
2020/12/14 05:26:59;;;;;;;142.72;67.10;;;;;;;4.08;86.97;100640.22;1708923;82;21278;-69
2020/12/14 05:29:28;;;;;;;145.87;67.03;;;;;;;4.11;86.96;100643.92;1710370;82;21183;-69
2020/12/14 05:32:12;;;;;;;175.35;73.57;;;;;;;4.15;86.96;100647.49;1739599;82;21116;-70
2020/12/14 05:34:42;;;;;;;163.57;70.05;;;;;;;4.13;86.96;100638.88;1740086;82;21199;-70
2020/12/14 05:37:10;;;;;;;;;;;;;;;4.09;87.00;100637.44;1742773;82;21195;-70
2020/12/14 05:39:37;;;;;;;169.07;79.65;;;;;;;4.02;86.99;100630.50;1739315;82;21207;-70
2020/12/14 05:42:18;;;;;;;162.27;75.65;;;;;;;3.98;86.98;100624.25;1740089;82;21188;-70
2020/12/14 05:44:48;;;;;;;137.88;67.03;;;;;;;3.96;86.96;100622.23;1740230;82;21550;-70
2020/12/14 05:47:31;;;;;;;140.12;62.93;;;;;;;3.91;86.94;100618.63;1740179;82;21132;-70
2020/12/14 05:50:00;;;;;;;153.30;73.70;;;;;;;3.88;86.92;100621.52;1717773;81;21191;-70
2020/12/14 05:52:34;;;;;;;166.37;74.30;;;;;;;3.88;86.94;100616.72;1710617;82;21299;-69
2020/12/14 05:55:01;;;;;;;147.75;67.92;;;;;;;3.91;86.93;100620.43;1730325;82;21160;-70
2020/12/14 05:57:34;;;;;;;141.20;63.23;;;;;;;3.97;86.92;100621.28;1738137;82;21188;-69
2020/12/14 06:00:08;;;;;;;137.28;64.27;;;;;;;3.97;86.95;100622.60;1737652;82;21164;-69
2020/12/14 06:02:35;;;;;;;149.38;69.62;;;;;;;4.01;86.96;100614.80;1739941;82;21160;-70
2020/12/14 06:05:04;;;;;;;169.82;78.92;;;;;;;3.99;86.94;100616.23;1740170;81;21168;-69
2020/12/14 06:07:31;;;;;;;159.25;77.08;;;;;;;3.97;86.96;100622.12;1740283;82;21163;-69
2020/12/14 06:10:12;;;;;;;184.63;85.75;;;;;;;3.94;87.00;100624.98;1737932;82;21184;-70
2020/12/14 06:12:42;;;;;;;165.35;75.22;;;;;;;3.92;86.99;100623.44;1710533;82;21612;-69
2020/12/14 06:15:15;;;;;;;141.97;66.65;;;;;;;3.92;87.01;100627.39;1710724;83;21671;-69
2020/12/14 06:17:41;;;;;;;138.28;65.72;;;;;;;3.88;87.03;100626.80;1709862;83;21226;-69
2020/12/14 06:20:14;;;;;;;136.77;63.00;;;;;;;3.88;87.03;100633.39;1714169;82;21220;-69
2020/12/14 06:22:46;;;;;;;131.50;57.43;;;;;;;3.87;87.04;100627.75;1740146;82;21179;-69
2020/12/14 06:25:12;;;;;;;126.75;56.15;;;;;;;3.86;87.02;100627.89;1737758;82;21180;-69
2020/12/14 06:27:38;;;;;;;140.25;57.75;;;;;;;3.86;87.02;100629.20;1740074;81;21176;-69
2020/12/14 06:30:30;;;;;;;161.73;64.70;;;;;;;3.89;87.03;100635.55;1728981;82;21629;-69
2020/12/14 06:33:03;;;;;;;145.32;65.08;;;;;;;3.92;87.06;100626.08;1718063;82;21230;-70
2020/12/14 06:35:49;;;;;;;152.62;69.22;;;;;;;3.91;87.06;100627.02;1710533;82;21614;-70
2020/12/14 06:38:37;;;;;;;153.32;64.30;;;;;;;3.93;87.09;100625.97;1663008;82;21172;-70
2020/12/14 06:41:16;;;;;;;151.75;70.30;;;;;;;3.91;87.11;100637.58;1740339;81;21133;-70
2020/12/14 06:43:44;;;;;;;195.80;92.63;;;;;;;3.89;87.12;100634.23;1739921;82;21667;-70
2020/12/14 06:46:10;;;;;;;181.67;77.97;;;;;;;3.86;87.15;100635.33;1740090;82;21219;-69
2020/12/14 06:48:41;;;;;;;164.00;74.53;;;;;;;3.87;87.14;100638.80;1735467;82;21180;-70
2020/12/14 06:51:13;;;;;;;155.27;67.60;;;;;;;3.84;87.15;100641.66;1710399;83;21594;-70
2020/12/14 06:53:43;;;;;;;144.05;61.58;;;;;;;3.83;87.18;100645.28;1710265;82;21231;-70
2020/12/14 06:56:10;;;;;;;146.87;63.92;;;;;;;3.81;87.19;100655.94;1710582;83;21164;-70
2020/12/14 06:58:41;;;;;;;128.65;56.90;;;;;;;3.80;87.19;100661.35;1735685;82;21144;-70
2020/12/14 07:01:37;;;;;;;127.15;55.17;;;;;;;3.84;87.17;100658.33;1738171;81;21199;-70
2020/12/14 07:07:07;;;;;;;127.07;58.73;;;;;;;3.97;87.19;100664.34;1851853;77;22839;-70
2020/12/14 07:09:38;;;;;;;143.02;61.45;;;;;;;3.94;87.19;100661.11;1801482;78;21151;-70
2020/12/14 07:12:18;;;;;;;127.60;59.53;;;;;;;3.93;87.24;100657.63;1798592;78;22174;-70
2020/12/14 07:14:54;;;;;;;136.22;61.25;;;;;;;3.95;87.25;100663.60;1811612;78;21175;-70
2020/12/14 07:17:28;;;;;;;153.97;67.62;;;;;;;3.96;87.27;100669.72;1823319;78;21168;-70
2020/12/14 07:19:56;;;;;;;187.27;80.00;;;;;;;3.97;87.28;100674.05;1822427;78;21586;-70
2020/12/14 07:22:34;;;;;;;176.80;74.70;;;;;;;3.98;87.27;100680.98;1822476;78;21168;-70
2020/12/14 07:25:05;;;;;;;150.12;64.87;;;;;;;4.01;87.26;100690.00;1801144;78;21197;-70
2020/12/14 07:27:33;;;;;;;127.50;59.75;;;;;;;4.03;87.29;100680.16;1791077;80;21604;-70
2020/12/14 07:30:06;;;;;;;134.12;60.60;;;;;;;4.08;87.28;100687.23;1789962;80;21120;-69
2020/12/14 07:32:33;;;;;;;189.18;91.05;;;;;;;4.05;87.29;100684.81;1789813;80;21265;-70
2020/12/14 07:34:59;;;;;;;282.20;137.82;;;;;;;4.08;87.31;100685.92;1790543;78;21132;-70
2020/12/14 07:37:25;;;;;;;159.60;83.03;;;;;;;4.10;87.33;100682.66;1789841;80;21193;-69
2020/12/14 07:39:52;;;;;;;122.37;62.78;;;;;;;4.10;87.35;100674.75;1789980;79;21124;-69
2020/12/14 07:42:31;;;;;;;125.70;67.00;;;;;;;4.11;87.33;100678.23;1789578;80;21596;-69
2020/12/14 07:45:09;;;;;;;128.62;64.60;;;;;;;4.13;87.35;100677.14;1790126;80;21198;-69
2020/12/14 07:47:35;;;;;;;135.12;65.60;;;;;;;4.16;87.37;100666.33;1789940;80;21429;-69
2020/12/14 07:50:18;;;;;;;137.60;66.40;;;;;;;4.15;87.37;100673.88;1790079;80;21128;-69
2020/12/14 07:52:46;;;;;;;134.37;64.85;;;;;;;4.16;87.37;100660.21;1789842;80;21167;-69
2020/12/14 07:55:14;;;;;;;156.78;70.75;;;;;;;4.18;87.41;100668.39;1789420;79;21125;-70
2020/12/14 07:57:43;;;;;;;148.68;71.55;;;;;;;4.18;87.39;100668.39;1789872;79;21461;-69
2020/12/14 08:00:12;;;;;;;;;;;;;;;4.19;87.42;100679.28;1792555;79;21132;-70
2020/12/14 08:02:39;;;;;;;156.52;71.55;;;;;;;4.21;87.44;100678.70;1789673;80;21258;-70
2020/12/14 08:05:10;;;;;;;129.27;66.77;;;;;;;4.23;87.44;100684.68;1792505;78;21198;-70
2020/12/14 08:07:42;;;;;;;133.27;64.82;;;;;;;4.25;87.42;100681.45;1789529;80;21124;-70
2020/12/14 08:10:08;;;;;;;126.47;62.78;;;;;;;4.27;87.41;100679.52;1789800;80;21160;-70
2020/12/14 08:12:39;;;;;;;117.82;59.70;;;;;;;4.30;87.44;100673.98;1789327;78;21169;-70
2020/12/14 08:15:16;;;;;;;115.57;57.70;;;;;;;4.35;87.42;100678.43;1759403;80;21254;-70
2020/12/14 08:17:42;;;;;;;117.80;57.78;;;;;;;4.41;87.41;100677.92;1789361;78;21196;-70
2020/12/14 08:20:30;;;;;;;128.50;60.63;;;;;;;4.43;87.44;100676.50;1788641;78;21616;-70
2020/12/14 08:23:01;;;;;;;125.72;63.02;;;;;;;4.47;87.44;100684.02;1788798;78;21656;-70
2020/12/14 08:25:32;;;;;;;119.97;62.90;;;;;;;4.54;87.46;100682.56;1790049;78;21152;-69
2020/12/14 08:28:03;;;;;;;130.75;66.22;;;;;;;4.62;87.45;100683.27;1789896;78;21630;-70
2020/12/14 08:30:31;;;;;;;151.22;82.60;;;;;;;4.65;87.45;100680.38;1791458;78;21152;-70
2020/12/14 08:33:08;;;;;;;134.37;64.62;;;;;;;4.65;87.41;100673.77;1792219;78;22237;-70
2020/12/14 08:35:40;;;;;;;118.62;58.98;;;;;;;4.69;87.41;100676.52;1790187;78;21189;-69
2020/12/14 08:38:20;;;;;;;110.10;56.28;;;;;;;4.70;87.41;100683.49;1787277;78;21148;-69
2020/12/14 08:40:52;;;;;;;;;;;;;;;4.73;87.42;100689.00;1791561;78;21319;-69
2020/12/14 08:43:18;;;;;;;114.97;56.50;;;;;;;4.72;87.42;100688.16;1789774;78;20274;-70
2020/12/14 08:46:15;;;;;;;125.62;60.73;;;;;;;4.74;87.41;100680.12;1791403;78;21492;-70
2020/12/14 08:48:48;;;;;;;108.75;57.73;;;;;;;4.72;87.38;100680.23;1793788;78;21119;-71
2020/12/14 08:51:26;;;;;;;125.42;64.05;;;;;;;4.76;87.37;100679.50;1802753;79;21140;-71
2020/12/14 08:53:55;;;;;;;120.22;63.73;;;;;;;4.80;87.36;100683.56;1788995;80;21199;-71
2020/12/14 08:56:34;;;;;;;120.22;61.88;;;;;;;4.81;87.35;100681.29;1792765;78;21168;-70
2020/12/14 08:59:16;;;;;;;118.85;61.68;;;;;;;4.84;87.34;100684.52;1789134;78;21596;-70
2020/12/14 09:02:00;;;;;;;119.53;60.92;;;;;;;4.87;87.33;100687.38;1791030;78;21138;-72
2020/12/14 09:04:31;;;;;;;137.18;67.60;;;;;;;4.88;87.34;100696.52;1788318;80;21173;-71
2020/12/14 09:07:01;;;;;;;119.00;55.73;;;;;;;4.93;87.27;100698.76;1791263;78;21219;-74
2020/12/14 09:09:51;;;;;;;173.13;76.33;;;;;;;4.96;87.26;100693.25;1744627;79;21658;-78
2020/12/14 09:12:37;;;;;;;139.95;61.73;;;;;;;5.01;87.25;100694.53;1778284;80;26722;-71
2020/12/14 09:15:05;;;;;;;108.60;54.58;;;;;;;5.04;87.24;100689.47;1774156;80;21587;-70
2020/12/14 09:17:31;;;;;;;114.50;56.02;;;;;;;5.09;87.24;100691.25;1777019;79;21215;-70
2020/12/14 09:19:57;;;;;;;127.20;67.67;;;;;;;5.11;87.22;100685.34;1781080;79;21692;-70
2020/12/14 09:22:27;;;;;;;119.35;61.92;;;;;;;5.15;87.21;100685.45;1784319;79;21186;-70
2020/12/14 09:24:53;;;;;;;121.33;59.48;;;;;;;5.14;87.20;100675.83;1783992;79;21163;-70
2020/12/14 09:27:20;;;;;;;116.30;57.80;;;;;;;5.16;87.18;100672.59;1782310;79;21715;-70
2020/12/14 09:29:46;;;;;;;104.90;54.42;;;;;;;5.18;87.17;100671.13;1780850;79;22664;-70
2020/12/14 09:32:13;;;;;;;103.65;54.65;;;;;;;5.22;87.15;100672.07;1781258;79;21268;-71
2020/12/14 09:34:43;;;;;;;107.47;53.87;;;;;;;5.28;87.12;100664.09;1783322;79;21208;-73
2020/12/14 09:37:09;;;;;;;;;;;;;;;5.29;87.12;100664.45;1787729;79;21127;-71
2020/12/14 09:39:36;;;;;;;104.53;52.55;;;;;;;5.32;87.10;100662.88;1782918;79;20399;-69
2020/12/14 09:42:03;;;;;;;99.15;51.25;;;;;;;5.33;87.06;100660.11;1784110;79;21052;-69
2020/12/14 09:44:30;;;;;;;93.97;49.05;;;;;;;5.37;87.06;100658.89;1781830;79;21167;-69
2020/12/14 09:46:59;;;;;;;85.10;47.53;;;;;;;5.42;87.00;100661.95;1778356;79;21271;-69
2020/12/14 09:49:25;;;;;;;91.32;46.63;;;;;;;5.46;87.00;100654.13;1783601;79;21167;-69
2020/12/14 09:51:52;;;;;;;86.55;45.30;;;;;;;5.57;86.97;100658.98;1781113;79;21698;-69
2020/12/14 09:54:18;;;;;;;93.85;45.00;;;;;;;5.63;86.96;100657.15;1783201;79;21777;-69
2020/12/14 09:56:45;;;;;;;87.78;47.00;;;;;;;5.63;86.95;100657.95;1781955;79;22086;-72
2020/12/14 09:59:11;;;;;;;79.62;43.45;;;;;;;5.61;86.92;100648.48;1776858;79;21529;-69
2020/12/14 10:01:38;;;;;;;81.55;44.73;;;;;;;5.65;86.86;100664.45;1777683;79;21214;-69
2020/12/14 10:04:04;;;;;;;88.17;45.45;;;;;;;5.64;86.83;100650.86;1784074;79;21191;-69
2020/12/14 10:06:30;;;;;;;80.85;43.25;;;;;;;5.65;86.80;100649.91;1786330;78;21134;-70
2020/12/14 10:08:56;;;;;;;83.60;44.45;;;;;;;5.68;86.77;100644.34;1789499;78;22090;-70
2020/12/14 10:11:27;;;;;;;75.75;40.30;;;;;;;5.68;86.75;100637.73;1789276;80;21558;-70
2020/12/14 10:13:53;;;;;;;96.10;47.08;;;;;;;5.70;86.66;100638.45;1795237;78;21159;-71
2020/12/14 10:16:19;;;;;;;81.63;41.63;;;;;;;5.69;86.60;100635.45;1789842;80;21147;-71
2020/12/14 10:18:46;;;;;;;65.97;37.63;;;;;;;5.71;86.58;100636.14;1789572;79;21137;-71
2020/12/14 10:21:12;;;;;;;75.80;39.08;;;;;;;5.71;86.51;100632.17;1789664;80;22046;-71
2020/12/14 10:23:38;;;;;;;80.28;43.30;;;;;;;5.78;86.50;100630.19;1791603;78;21132;-70
2020/12/14 10:26:05;;;;;;;83.42;43.65;;;;;;;5.89;86.49;100623.98;1792780;80;21223;-71
2020/12/14 10:28:32;;;;;;;73.83;40.23;;;;;;;5.95;86.42;100623.44;1750793;81;21152;-70
2020/12/14 10:30:58;;;;;;;87.27;46.33;;;;;;;5.96;86.42;100621.16;1775860;80;21124;-70
2020/12/14 10:33:26;;;;;;;93.78;54.45;;;;;;;5.94;86.35;100631.05;1744870;82;21272;-71
2020/12/14 10:35:52;;;;;;;224.47;107.63;;;;;;;5.95;86.32;100620.80;1738496;82;21157;-70
2020/12/14 10:38:19;;;;;;;149.25;73.52;;;;;;;5.93;86.28;100622.75;1728966;81;21137;-71
2020/12/14 10:40:45;;;;;;;204.05;104.30;;;;;;;5.94;86.23;100617.81;1747260;81;21167;-70
2020/12/14 10:43:11;;;;;;;89.83;50.48;;;;;;;5.94;86.19;100615.17;1711482;81;21623;-70
2020/12/14 10:45:38;;;;;;;81.78;45.98;;;;;;;5.95;86.14;100614.17;1733340;81;21597;-70
2020/12/14 10:48:04;;;;;;;77.62;42.93;;;;;;;6.01;86.08;100613.66;1736886;81;21657;-70
2020/12/14 10:50:31;;;;;;;75.30;42.60;;;;;;;6.04;86.01;100618.67;1746069;81;21172;-71
2020/12/14 10:52:57;;;;;;;86.00;44.20;;;;;;;6.09;86.00;100616.44;1734373;80;21198;-71
2020/12/14 10:55:25;;;;;;;85.05;47.38;;;;;;;6.13;85.97;100620.50;1727789;81;21152;-71
2020/12/14 10:57:51;;;;;;;119.42;54.15;;;;;;;6.15;85.92;100618.57;1729256;80;21266;-71
2020/12/14 11:00:20;;;;;;;82.35;46.42;;;;;;;6.15;85.89;100611.95;1726600;81;21180;-71
2020/12/14 11:02:45;;;;;;;92.20;48.35;;;;;;;6.16;85.83;100612.79;1756593;79;21630;-70
2020/12/14 11:05:12;;;;;;;84.05;45.23;;;;;;;6.16;85.81;100613.60;1725932;81;21527;-70
2020/12/14 11:07:38;;;;;;;86.90;42.83;;;;;;;6.19;85.73;100617.33;1734353;80;21189;-71
2020/12/14 11:10:06;;;;;;;78.70;41.48;;;;;;;6.16;85.68;100612.28;1725600;81;21974;-71
2020/12/14 11:12:32;;;;;;;73.07;39.78;;;;;;;6.15;85.61;100607.14;1758924;79;21222;-71
2020/12/14 11:14:59;;;;;;;82.80;44.77;;;;;;;6.15;85.59;100602.69;1728702;81;21562;-70
2020/12/14 11:17:27;;;;;;;90.00;45.65;;;;;;;6.22;85.58;100606.45;1753074;80;21181;-71
2020/12/14 11:19:53;;;;;;;78.70;44.03;;;;;;;6.27;85.50;100606.87;1728279;81;21216;-71
2020/12/14 11:22:20;;;;;;;87.95;45.03;;;;;;;6.26;85.44;100599.88;1710899;83;21166;-71